createdAt,value
2023-02-19T00:01:24.549Z,53.85
2023-02-19T00:03:54.019Z,51.89
2023-02-19T00:06:21.931Z,53.76
2023-02-19T00:08:48.831Z,51.30
2023-02-19T00:11:18.578Z,52.60
2023-02-19T00:13:47.684Z,54.06
2023-02-19T00:16:20.148Z,52.16
2023-02-19T00:18:47.275Z,54.68
2023-02-19T00:21:14.985Z,53.06
2023-02-19T00:23:41.672Z,51.75
2023-02-19T00:26:18.121Z,52.68
2023-02-19T00:28:48.388Z,54.21
2023-02-19T00:31:18.870Z,53.18
2023-02-19T00:33:49.134Z,53.55
2023-02-19T00:36:16.661Z,50.62
2023-02-19T00:38:44.291Z,51.99
2023-02-19T00:41:21.855Z,54.61
2023-02-19T00:43:59.682Z,53.98
2023-02-19T00:46:33.733Z,53.02
2023-02-19T00:49:01.136Z,53.40
2023-02-19T00:51:30.881Z,49.69
2023-02-19T00:53:59.408Z,52.35
2023-02-19T00:56:26.473Z,52.66
2023-02-19T00:58:53.332Z,48.86
2023-02-19T01:01:20.878Z,52.18
2023-02-19T01:03:47.995Z,50.66
2023-02-19T01:06:16.771Z,51.22
2023-02-19T01:08:44.152Z,52.73
2023-02-19T01:11:11.754Z,53.01
2023-02-19T01:13:39.368Z,52.91
2023-02-19T01:16:13.127Z,52.66
2023-02-19T01:18:40.021Z,53.60
2023-02-19T01:21:08.825Z,54.93
2023-02-19T01:23:36.372Z,56.41
2023-02-19T01:26:12.769Z,55.96
2023-02-19T01:28:39.562Z,55.46
2023-02-19T01:31:09.168Z,53.93
2023-02-19T01:33:36.356Z,55.48
2023-02-19T01:36:05.040Z,53.60
2023-02-19T01:38:31.996Z,56.74
2023-02-19T01:41:01.807Z,57.31
2023-02-19T01:43:29.007Z,57.71
2023-02-19T01:45:55.720Z,58.14
2023-02-19T01:48:38.208Z,58.34
2023-02-19T01:51:15.525Z,58.35
2023-02-19T01:53:46.111Z,58.77
2023-02-19T01:56:16.218Z,58.75
2023-02-19T01:58:43.152Z,59.14
2023-02-19T02:01:10.128Z,58.11
2023-02-19T02:03:40.479Z,58.23
2023-02-19T02:06:07.283Z,58.07
2023-02-19T02:08:52.865Z,56.59
2023-02-19T02:11:21.421Z,55.70
2023-02-19T02:13:49.336Z,55.66
2023-02-19T02:16:34.806Z,56.16
2023-02-19T02:19:32.268Z,56.65
2023-02-19T02:22:09.713Z,56.44
2023-02-19T02:25:15.578Z,56.02
2023-02-19T02:28:12.937Z,56.39
2023-02-19T02:30:53.224Z,56.91
2023-02-19T02:33:39.634Z,54.32
2023-02-19T02:36:08.846Z,53.09
2023-02-19T02:38:40.504Z,50.75
2023-02-19T02:41:07.333Z,51.72
2023-02-19T02:43:34.119Z,51.93
2023-02-19T02:46:01.264Z,52.37
2023-02-19T02:48:55.366Z,51.96
2023-02-19T02:51:34.503Z,50.34
2023-02-19T02:54:29.535Z,52.39
2023-02-19T02:56:58.837Z,53.72
2023-02-19T02:59:33.875Z,54.37
2023-02-19T03:02:11.721Z,56.08
2023-02-19T03:05:09.531Z,53.81
2023-02-19T03:07:41.566Z,53.79
2023-02-19T03:10:13.421Z,55.70
2023-02-19T03:13:01.423Z,54.93
2023-02-19T03:15:52.019Z,57.48
2023-02-19T03:18:37.979Z,59.02
2023-02-19T03:21:07.229Z,58.79
2023-02-19T03:23:55.232Z,59.19
2023-02-19T03:26:23.942Z,58.16
2023-02-19T03:29:11.898Z,58.02
2023-02-19T03:31:43.818Z,55.97
2023-02-19T03:34:21.828Z,55.86
2023-02-19T03:36:57.147Z,57.53
2023-02-19T03:39:24.429Z,56.63
2023-02-19T03:42:18.654Z,56.84
2023-02-19T03:44:48.580Z,55.10
2023-02-19T03:47:24.369Z,54.90
2023-02-19T03:50:01.348Z,57.04
2023-02-19T03:52:54.504Z,57.96
2023-02-19T03:55:35.171Z,60.24
2023-02-19T03:58:10.580Z,59.65
2023-02-19T04:00:44.487Z,60.89
2023-02-19T04:03:37.457Z,59.06
2023-02-19T04:06:12.027Z,60.17
2023-02-19T04:08:43.094Z,61.13
2023-02-19T04:11:11.887Z,60.65
2023-02-19T04:13:52.580Z,61.09
2023-02-19T04:16:23.119Z,61.24
2023-02-19T04:18:54.513Z,60.43
2023-02-19T04:21:22.932Z,60.11
2023-02-19T04:23:49.756Z,60.59
2023-02-19T04:26:20.138Z,61.73
2023-02-19T04:28:47.162Z,59.95
2023-02-19T04:31:14.203Z,59.15
2023-02-19T04:33:41.236Z,57.41
2023-02-19T04:36:09.856Z,57.74
2023-02-19T04:38:36.494Z,56.77
2023-02-19T04:41:03.733Z,55.71
2023-02-19T04:43:30.345Z,58.41
2023-02-19T04:46:01.367Z,58.21
2023-02-19T04:48:28.783Z,56.32
2023-02-19T04:50:55.738Z,58.09
2023-02-19T04:53:22.410Z,59.60
2023-02-19T04:55:49.142Z,59.89
2023-02-19T04:58:15.766Z,59.87
2023-02-19T05:00:42.376Z,59.67
2023-02-19T05:03:09.090Z,59.76
2023-02-19T05:05:35.725Z,60.90
2023-02-19T05:08:02.372Z,59.16
2023-02-19T05:10:28.940Z,58.16
2023-02-19T05:12:57.904Z,58.07
2023-02-19T05:15:24.640Z,57.89
2023-02-19T05:17:51.293Z,58.77
2023-02-19T05:20:17.934Z,60.73
2023-02-19T05:22:44.544Z,58.02
2023-02-19T05:25:11.096Z,58.15
2023-02-19T05:27:37.778Z,56.99
2023-02-19T05:30:04.740Z,57.27
2023-02-19T05:32:31.512Z,57.83
2023-02-19T05:34:58.110Z,58.76
2023-02-19T05:37:24.733Z,56.32
2023-02-19T05:39:51.290Z,55.30
2023-02-19T05:42:17.900Z,55.84
2023-02-19T05:44:44.487Z,55.30
2023-02-19T05:47:11.111Z,55.29
2023-02-19T05:49:37.753Z,55.40
2023-02-19T05:52:04.682Z,56.23
2023-02-19T05:54:31.393Z,53.79
2023-02-19T05:56:58.277Z,53.34
2023-02-19T05:59:26.617Z,54.42
2023-02-19T06:01:54.740Z,53.47
2023-02-19T06:04:21.697Z,55.91
2023-02-19T06:06:48.774Z,55.19
2023-02-19T06:09:15.418Z,57.01
2023-02-19T06:11:43.578Z,52.43
2023-02-19T06:14:13.514Z,53.74
2023-02-19T06:16:40.502Z,55.71
2023-02-19T06:19:07.245Z,55.26
2023-02-19T06:21:34.220Z,56.16
2023-02-19T06:24:05.140Z,55.98
2023-02-19T06:26:31.844Z,55.40
2023-02-19T06:28:58.464Z,55.07
2023-02-19T06:31:25.987Z,55.75
2023-02-19T06:33:52.893Z,57.12
2023-02-19T06:36:20.833Z,57.27
2023-02-19T06:38:47.652Z,56.85
2023-02-19T06:41:14.977Z,56.26
2023-02-19T06:43:42.219Z,55.16
2023-02-19T06:46:10.757Z,53.52
2023-02-19T06:48:39.020Z,53.22
2023-02-19T06:51:05.864Z,54.68
2023-02-19T06:53:32.468Z,54.29
2023-02-19T06:56:01.800Z,52.89
2023-02-19T06:58:29.230Z,53.99
2023-02-19T07:00:56.457Z,53.91
2023-02-19T07:03:23.219Z,54.23
2023-02-19T07:05:50.012Z,54.88
2023-02-19T07:08:19.592Z,56.16
2023-02-19T07:10:46.199Z,55.32
2023-02-19T07:13:12.831Z,55.41
2023-02-19T07:15:39.567Z,56.10
2023-02-19T07:18:10.263Z,54.47
2023-02-19T07:20:37.391Z,56.14
2023-02-19T07:23:04.148Z,55.34
2023-02-19T07:25:30.966Z,55.52
2023-02-19T07:27:57.646Z,56.25
2023-02-19T07:30:24.373Z,55.83
2023-02-19T07:32:51.037Z,54.25
2023-02-19T07:35:17.646Z,56.63
2023-02-19T07:37:44.229Z,57.08
2023-02-19T07:40:10.867Z,56.38
2023-02-19T07:42:37.648Z,56.98
2023-02-19T07:45:06.024Z,57.07
2023-02-19T07:47:32.660Z,54.15
2023-02-19T07:49:59.206Z,55.13
2023-02-19T07:52:28.942Z,57.76
2023-02-19T07:54:55.577Z,58.10
2023-02-19T07:57:22.205Z,54.76
2023-02-19T07:59:48.852Z,56.54
2023-02-19T08:02:36.409Z,54.52
2023-02-19T08:05:04.026Z,53.78
2023-02-19T08:07:35.001Z,55.15
2023-02-19T08:10:21.000Z,57.68
2023-02-19T08:13:19.562Z,57.64
2023-02-19T08:15:47.054Z,57.20
2023-02-19T08:18:15.248Z,56.26
2023-02-19T08:20:42.616Z,57.05
2023-02-19T08:23:09.540Z,56.68
2023-02-19T08:25:37.041Z,54.75
2023-02-19T08:28:04.300Z,55.70
2023-02-19T08:30:32.337Z,56.15
2023-02-19T08:33:02.227Z,57.66
2023-02-19T08:35:29.313Z,59.32
2023-02-19T08:37:59.200Z,59.76
2023-02-19T08:40:26.977Z,55.23
2023-02-19T08:42:53.926Z,55.43
2023-02-19T08:45:21.131Z,58.53
2023-02-19T08:47:47.667Z,58.47
2023-02-19T08:50:14.231Z,57.45
2023-02-19T08:52:40.866Z,58.21
2023-02-19T08:55:07.838Z,56.75
2023-02-19T08:57:37.849Z,58.77
2023-02-19T09:00:06.791Z,56.25
2023-02-19T09:02:36.022Z,55.25
2023-02-19T09:05:03.370Z,57.06
2023-02-19T09:07:30.016Z,53.98
2023-02-19T09:09:56.683Z,56.23
2023-02-19T09:12:23.353Z,56.19
2023-02-19T09:14:50.398Z,53.55
2023-02-19T09:17:17.486Z,50.65
2023-02-19T09:19:44.041Z,51.56
2023-02-19T09:22:10.727Z,51.60
2023-02-19T09:24:37.485Z,51.66
2023-02-19T09:27:04.189Z,49.78
2023-02-19T09:29:30.788Z,54.42
2023-02-19T09:31:58.951Z,50.32
2023-02-19T09:34:27.172Z,50.69
2023-02-19T09:36:54.859Z,50.03
2023-02-19T09:39:21.804Z,52.27
2023-02-19T09:41:55.330Z,50.11
2023-02-19T09:44:32.552Z,50.63
2023-02-19T09:47:00.932Z,50.76
2023-02-19T09:49:36.506Z,52.21
2023-02-19T09:52:12.053Z,50.87
2023-02-19T09:54:40.725Z,50.55
2023-02-19T09:57:19.057Z,51.48
2023-02-19T09:59:52.108Z,50.75
2023-02-19T10:02:22.175Z,51.13
2023-02-19T10:04:53.860Z,51.78
2023-02-19T10:07:24.071Z,50.02
2023-02-19T10:09:57.454Z,51.53
2023-02-19T10:12:30.340Z,54.40
2023-02-19T10:15:09.240Z,51.80
2023-02-19T10:17:37.337Z,51.79
2023-02-19T10:20:04.416Z,50.69
2023-02-19T10:22:34.736Z,51.90
2023-02-19T10:25:01.812Z,52.55
2023-02-19T10:27:31.316Z,51.79
2023-02-19T10:30:00.192Z,48.76
2023-02-19T10:32:29.521Z,50.75
2023-02-19T10:35:14.849Z,52.61
2023-02-19T10:37:47.078Z,49.19
2023-02-19T10:40:19.110Z,50.39
2023-02-19T10:42:48.731Z,49.36
2023-02-19T10:45:39.584Z,49.76
2023-02-19T10:48:18.206Z,51.53
2023-02-19T10:50:56.040Z,49.81
2023-02-19T10:53:24.551Z,50.61
2023-02-19T10:56:07.836Z,48.12
2023-02-19T10:58:34.620Z,50.96
2023-02-19T11:01:26.985Z,51.21
2023-02-19T11:04:17.683Z,51.85
2023-02-19T11:06:45.695Z,48.65
2023-02-19T11:09:27.011Z,46.57
2023-02-19T11:11:55.258Z,51.24
2023-02-19T11:14:27.386Z,49.44
2023-02-19T11:16:57.092Z,48.91
2023-02-19T11:19:36.937Z,51.04
2023-02-19T11:22:27.482Z,51.56
2023-02-19T11:24:57.778Z,51.82
2023-02-19T11:27:26.350Z,53.19
2023-02-19T11:29:53.025Z,53.23
2023-02-19T11:32:29.631Z,53.55
2023-02-19T11:35:17.767Z,53.98
2023-02-19T11:38:01.955Z,51.35
2023-02-19T11:40:39.657Z,51.67
2023-02-19T11:43:20.776Z,52.17
2023-02-19T11:46:10.780Z,54.01
2023-02-19T11:49:11.431Z,52.76
2023-02-19T11:51:40.995Z,52.69
2023-02-19T11:54:22.086Z,52.74
2023-02-19T11:57:17.369Z,50.79
2023-02-19T12:00:00.707Z,51.86
2023-02-19T12:02:55.020Z,51.61
2023-02-19T12:05:48.018Z,53.14
2023-02-19T12:08:29.411Z,51.89
2023-02-19T12:11:19.828Z,52.38
2023-02-19T12:14:16.341Z,50.78
2023-02-19T12:17:04.081Z,51.19
2023-02-19T12:19:44.656Z,51.63
2023-02-19T12:22:20.357Z,51.72
2023-02-19T12:25:08.819Z,50.00
2023-02-19T12:27:41.452Z,51.87
2023-02-19T12:30:34.421Z,48.91
2023-02-19T12:33:18.411Z,49.87
2023-02-19T12:35:53.869Z,49.77
2023-02-19T12:38:50.808Z,50.30
2023-02-19T12:41:34.863Z,49.80
2023-02-19T12:44:04.052Z,50.71
2023-02-19T12:46:38.429Z,51.50
2023-02-19T12:49:11.009Z,52.10
2023-02-19T12:51:46.657Z,52.61
2023-02-19T12:54:21.747Z,52.34
2023-02-19T12:56:57.829Z,51.86
2023-02-19T12:59:38.762Z,51.74
2023-02-19T13:02:08.306Z,52.44
2023-02-19T13:05:11.282Z,51.72
2023-02-19T13:07:40.480Z,52.60
2023-02-19T13:10:29.151Z,52.72
2023-02-19T13:13:00.405Z,52.26
2023-02-19T13:15:35.933Z,51.45
2023-02-19T13:18:05.205Z,52.96
2023-02-19T13:20:43.974Z,52.46
2023-02-19T13:23:46.681Z,53.31
2023-02-19T13:26:23.487Z,51.82
2023-02-19T13:29:29.682Z,52.30
2023-02-19T13:32:33.503Z,50.18
2023-02-19T13:35:27.661Z,47.46
2023-02-19T13:37:59.928Z,49.12
2023-02-19T13:40:44.950Z,47.67
2023-02-19T13:43:27.169Z,50.14
2023-02-19T13:46:00.387Z,49.36
2023-02-19T13:48:33.783Z,49.59
2023-02-19T13:51:12.959Z,49.09
2023-02-19T13:53:43.157Z,50.45
2023-02-19T13:56:31.691Z,51.56
2023-02-19T13:59:11.170Z,51.00
2023-02-19T14:01:49.876Z,47.53
2023-02-19T14:04:22.182Z,49.11
2023-02-19T14:07:03.949Z,51.17
2023-02-19T14:09:44.364Z,51.66
2023-02-19T14:12:15.887Z,51.24
2023-02-19T14:14:45.113Z,50.96
2023-02-19T14:17:35.881Z,51.90
2023-02-19T14:20:23.734Z,52.46
2023-02-19T14:23:01.503Z,51.87
2023-02-19T14:25:31.098Z,51.93
2023-02-19T14:28:44.917Z,52.62
2023-02-19T14:31:34.006Z,52.68
2023-02-19T14:34:04.883Z,52.21
2023-02-19T14:36:48.678Z,52.45
2023-02-19T14:39:23.839Z,53.90
2023-02-19T14:41:54.795Z,50.42
2023-02-19T14:44:25.123Z,52.19
2023-02-19T14:47:00.413Z,53.16
2023-02-19T14:49:29.825Z,52.46
2023-02-19T14:52:00.677Z,53.34
2023-02-19T14:54:40.175Z,53.32
2023-02-19T14:57:15.330Z,52.66
2023-02-19T14:59:52.199Z,52.42
2023-02-19T15:02:21.065Z,53.55
2023-02-19T15:04:47.800Z,54.88
2023-02-19T15:07:19.317Z,55.67
2023-02-19T15:09:51.888Z,54.07
2023-02-19T15:12:23.275Z,54.89
2023-02-19T15:14:53.175Z,55.17
2023-02-19T15:17:26.792Z,56.49
2023-02-19T15:19:55.568Z,55.08
2023-02-19T15:22:24.794Z,55.91
2023-02-19T15:24:51.835Z,56.31
2023-02-19T15:27:21.369Z,55.92
2023-02-19T15:29:52.935Z,56.49
2023-02-19T15:32:24.004Z,56.28
2023-02-19T15:35:02.801Z,55.52
2023-02-19T15:37:33.832Z,56.86
2023-02-19T15:40:05.586Z,54.10
2023-02-19T15:42:37.200Z,55.46
2023-02-19T15:45:22.165Z,55.92
2023-02-19T15:48:10.452Z,55.96
2023-02-19T15:50:43.998Z,55.87
2023-02-19T15:53:23.558Z,56.26
2023-02-19T15:56:16.888Z,56.07
2023-02-19T15:58:55.576Z,56.84
2023-02-19T16:01:25.729Z,57.07
2023-02-19T16:03:55.705Z,56.70
2023-02-19T16:06:26.858Z,57.33
2023-02-19T16:09:05.775Z,59.04
2023-02-19T16:11:47.505Z,58.86
2023-02-19T16:14:31.108Z,58.97
2023-02-19T16:17:11.762Z,60.71
2023-02-19T16:19:53.437Z,59.81
2023-02-19T16:22:24.435Z,60.04
2023-02-19T16:25:00.504Z,59.31
2023-02-19T16:27:37.769Z,59.47
2023-02-19T16:30:09.398Z,59.72
2023-02-19T16:32:36.182Z,58.84
2023-02-19T16:35:02.811Z,58.70
2023-02-19T16:37:40.813Z,58.56
2023-02-19T16:40:07.609Z,58.51
2023-02-19T16:42:49.754Z,60.37
2023-02-19T16:45:16.896Z,61.69
2023-02-19T16:47:51.258Z,60.67
2023-02-19T16:50:21.854Z,60.88
2023-02-19T16:52:56.866Z,60.42
2023-02-19T16:55:24.415Z,60.46
2023-02-19T16:57:51.573Z,60.10
2023-02-19T17:00:23.308Z,60.11
2023-02-19T17:02:55.584Z,59.14
2023-02-19T17:05:23.489Z,59.94
2023-02-19T17:07:50.455Z,59.27
2023-02-19T17:10:19.638Z,60.43
2023-02-19T17:12:46.680Z,61.54
2023-02-19T17:15:13.431Z,59.45
2023-02-19T17:17:40.623Z,59.18
2023-02-19T17:20:17.821Z,58.79
2023-02-19T17:22:44.904Z,59.84
2023-02-19T17:25:11.469Z,58.94
2023-02-19T17:27:38.184Z,58.71
2023-02-19T17:30:16.705Z,60.01
2023-02-19T17:32:43.387Z,59.60
2023-02-19T17:35:09.967Z,59.83
2023-02-19T17:37:36.627Z,60.19
2023-02-19T17:40:03.363Z,60.20
2023-02-19T17:42:29.966Z,60.33
2023-02-19T17:44:56.573Z,60.49
2023-02-19T17:47:23.194Z,60.80
2023-02-19T17:49:49.758Z,61.15
2023-02-19T17:52:17.811Z,60.98
2023-02-19T17:54:44.500Z,60.92
2023-02-19T17:57:11.160Z,60.68
2023-02-19T17:59:37.813Z,60.22
2023-02-19T18:02:04.435Z,60.52
2023-02-19T18:04:31.056Z,59.11
2023-02-19T18:06:57.807Z,60.42
2023-02-19T18:09:24.637Z,59.70
2023-02-19T18:11:51.290Z,60.34
2023-02-19T18:14:17.849Z,61.34
2023-02-19T18:16:49.395Z,60.46
2023-02-19T18:19:16.902Z,61.02
2023-02-19T18:21:43.487Z,59.36
2023-02-19T18:24:10.093Z,56.92
2023-02-19T18:26:36.688Z,57.63
2023-02-19T18:29:05.294Z,58.04
2023-02-19T18:31:33.205Z,59.06
2023-02-19T18:33:59.884Z,59.10
2023-02-19T18:36:26.655Z,59.64
2023-02-19T18:38:53.239Z,60.84
2023-02-19T18:41:21.002Z,60.29
2023-02-19T18:43:48.227Z,59.60
2023-02-19T18:46:15.015Z,60.56
2023-02-19T18:48:41.692Z,60.67
2023-02-19T18:51:12.119Z,60.80
2023-02-19T18:53:39.014Z,60.22
2023-02-19T18:56:05.952Z,59.87
2023-02-19T18:58:32.576Z,60.16
2023-02-19T19:00:59.509Z,60.17
2023-02-19T19:03:26.396Z,60.67
2023-02-19T19:05:53.224Z,60.47
2023-02-19T19:08:19.837Z,58.40
2023-02-19T19:10:46.461Z,61.74
2023-02-19T19:13:13.176Z,60.52
2023-02-19T19:15:41.359Z,61.50
2023-02-19T19:18:09.043Z,62.99
2023-02-19T19:20:35.761Z,61.22
2023-02-19T19:23:02.461Z,61.21
2023-02-19T19:25:29.030Z,61.19
2023-02-19T19:27:56.636Z,61.39
2023-02-19T19:30:23.772Z,61.43
2023-02-19T19:32:52.292Z,61.83
2023-02-19T19:35:20.584Z,61.78
2023-02-19T19:37:47.527Z,62.37
2023-02-19T19:40:16.969Z,61.81
2023-02-19T19:42:44.634Z,63.38
2023-02-19T19:45:12.472Z,63.21
2023-02-19T19:47:46.859Z,61.92
2023-02-19T19:50:14.458Z,61.79
2023-02-19T19:52:41.142Z,60.71
2023-02-19T19:55:08.059Z,61.45
2023-02-19T19:57:34.608Z,60.49
2023-02-19T20:00:01.373Z,58.96
2023-02-19T20:02:28.661Z,59.50
2023-02-19T20:04:55.761Z,60.99
2023-02-19T20:07:22.318Z,59.65
2023-02-19T20:09:49.371Z,60.40
2023-02-19T20:12:16.864Z,60.57
2023-02-19T20:14:45.785Z,62.12
2023-02-19T20:17:12.904Z,60.32
2023-02-19T20:19:39.526Z,60.64
2023-02-19T20:22:06.225Z,59.91
2023-02-19T20:24:32.875Z,61.15
2023-02-19T20:27:01.819Z,60.37
2023-02-19T20:29:30.748Z,59.02
2023-02-19T20:31:59.915Z,59.14
2023-02-19T20:34:27.183Z,59.41
2023-02-19T20:36:54.330Z,60.27
2023-02-19T20:39:22.161Z,60.16
2023-02-19T20:41:50.897Z,60.28
2023-02-19T20:44:18.774Z,59.83
2023-02-19T20:46:50.430Z,58.48
2023-02-19T20:49:20.524Z,58.87
2023-02-19T20:51:50.072Z,60.53
2023-02-19T20:54:18.241Z,60.82
2023-02-19T20:56:46.119Z,60.80
2023-02-19T20:59:13.959Z,59.96
2023-02-19T21:01:40.876Z,59.86
2023-02-19T21:04:07.772Z,58.88
2023-02-19T21:06:34.526Z,59.17
2023-02-19T21:09:01.156Z,59.95
2023-02-19T21:11:27.946Z,60.85
2023-02-19T21:13:58.906Z,61.58
2023-02-19T21:16:26.945Z,60.15
2023-02-19T21:18:53.751Z,61.03
2023-02-19T21:21:25.027Z,62.41
2023-02-19T21:23:55.925Z,61.93
2023-02-19T21:26:23.851Z,61.14
2023-02-19T21:28:51.610Z,62.22
2023-02-19T21:31:19.182Z,61.44
2023-02-19T21:33:46.441Z,61.00
2023-02-19T21:36:13.313Z,60.66
2023-02-19T21:38:39.977Z,60.15
2023-02-19T21:41:06.551Z,61.45
2023-02-19T21:43:33.098Z,61.31
2023-02-19T21:45:59.752Z,60.81
2023-02-19T21:48:26.354Z,60.51
2023-02-19T21:50:52.975Z,58.97
2023-02-19T21:53:19.671Z,60.32
2023-02-19T21:55:57.902Z,59.17
2023-02-19T21:58:26.030Z,60.37
2023-02-19T22:00:53.995Z,59.91
2023-02-19T22:03:21.089Z,59.89
2023-02-19T22:05:47.695Z,61.50
2023-02-19T22:08:15.916Z,61.30
2023-02-19T22:10:42.585Z,61.35
2023-02-19T22:13:10.119Z,61.42
2023-02-19T22:15:36.856Z,61.72
2023-02-19T22:18:03.650Z,62.14
2023-02-19T22:20:30.569Z,61.38
2023-02-19T22:22:57.150Z,61.49
2023-02-19T22:25:23.705Z,61.55
2023-02-19T22:27:50.299Z,62.88
2023-02-19T22:30:17.264Z,63.50
2023-02-19T22:32:43.907Z,63.13
2023-02-19T22:35:10.552Z,63.64
2023-02-19T22:37:37.174Z,63.39
2023-02-19T22:40:03.907Z,63.39
2023-02-19T22:42:30.528Z,63.54
2023-02-19T22:44:57.139Z,63.14
2023-02-19T22:47:23.852Z,63.31
2023-02-19T22:49:50.462Z,63.42
2023-02-19T22:52:17.101Z,64.88
2023-02-19T22:54:43.740Z,64.79
2023-02-19T22:57:10.286Z,64.65
2023-02-19T22:59:36.890Z,64.97
2023-02-19T23:02:03.618Z,64.93
2023-02-19T23:04:30.422Z,65.03
2023-02-19T23:06:57.000Z,64.92
2023-02-19T23:09:26.461Z,65.43
2023-02-19T23:11:54.668Z,65.68
2023-02-19T23:14:22.031Z,65.90
2023-02-19T23:16:48.629Z,66.05
2023-02-19T23:19:15.975Z,65.94
2023-02-19T23:21:44.526Z,65.87
2023-02-19T23:24:12.309Z,65.39
2023-02-19T23:26:47.191Z,65.84
2023-02-19T23:29:19.220Z,65.75
2023-02-19T23:31:46.146Z,66.10
2023-02-19T23:34:13.627Z,66.45
2023-02-19T23:36:41.796Z,66.73
2023-02-19T23:39:11.377Z,67.15
2023-02-19T23:41:38.221Z,67.06
2023-02-19T23:44:05.368Z,68.08
2023-02-19T23:46:33.835Z,68.05
2023-02-19T23:49:00.432Z,68.00
2023-02-19T23:51:27.021Z,67.62
2023-02-19T23:53:53.640Z,67.34
2023-02-19T23:56:25.198Z,67.60
2023-02-19T23:58:51.837Z,67.92
